Time;durP1;ratioP1;P1;durP2;ratioP2;P2;SDS_P1;SDS_P2;PMS_P1;PMS_P2;Temp;Humidity;BMP_temperature;BMP_pressure;BME280_temperature;BME280_humidity;BME280_pressure;Samples;Min_cycle;Max_cycle;Signal;HPM_P1;HPM_P2
2022/02/13 00:04:26;;;;;;;22.00;11.90;;;;;;;-3.94;77.35;100683.17;443992;1269;142634;-71
2022/02/13 00:14:33;;;;;;;25.70;12.40;;;;;;;-3.91;77.23;100673.29;445293;1269;143012;-71
2022/02/13 00:24:39;;;;;;;27.90;14.70;;;;;;;-3.90;77.17;100666.61;446846;1269;142712;-69
2022/02/13 00:34:45;;;;;;;22.10;12.70;;;;;;;-3.92;77.16;100654.62;440636;1270;144876;-68
2022/02/13 00:44:51;;;;;;;17.30;10.80;;;;;;;-4.01;77.26;100638.95;440968;1269;142665;-68
2022/02/13 00:54:56;;;;;;;15.30;10.00;;;;;;;-4.11;77.31;100630.27;447619;1269;143734;-67
2022/02/13 01:05:02;;;;;;;18.80;10.50;;;;;;;-4.14;77.25;100613.81;447531;1269;142859;-67
2022/02/13 01:15:09;;;;;;;17.00;9.40;;;;;;;-4.26;77.30;100599.64;446940;1270;143464;-69
2022/02/13 01:25:14;;;;;;;16.90;10.70;;;;;;;-4.31;77.51;100583.84;447760;1269;142185;-69
2022/02/13 01:35:20;;;;;;;18.80;10.80;;;;;;;-4.33;77.52;100561.92;442727;1270;141661;-68
2022/02/13 01:45:26;;;;;;;17.20;10.80;;;;;;;-4.27;77.52;100549.36;446734;1270;142178;-68
2022/02/13 01:55:32;;;;;;;15.00;9.70;;;;;;;-4.08;77.25;100547.02;446756;1269;142665;-68
2022/02/13 02:05:37;;;;;;;;;;;;;;;-3.98;77.05;100550.38;444534;1269;146196;-68
2022/02/13 02:15:43;;;;;;;19.30;10.20;;;;;;;-3.96;76.96;100536.89;442983;1270;128739;-68
2022/02/13 02:25:48;;;;;;;28.30;12.10;;;;;;;-3.99;76.84;100529.50;446766;1269;142865;-68
2022/02/13 02:35:55;;;;;;;17.30;10.60;;;;;;;-4.03;76.79;100513.55;442964;1270;289898;-67
2022/02/13 02:46:00;;;;;;;21.10;12.30;;;;;;;-4.05;76.92;100507.20;442629;1270;143222;-68
2022/02/13 02:56:07;;;;;;;17.80;10.80;;;;;;;-4.03;76.86;100500.55;444509;1270;142018;-67
2022/02/13 03:06:13;;;;;;;18.60;10.50;;;;;;;-4.03;76.82;100495.58;439983;1270;144075;-67
2022/02/13 03:16:19;;;;;;;18.50;11.10;;;;;;;-4.07;76.71;100480.33;432305;1270;144035;-67
2022/02/13 03:26:27;;;;;;;26.00;13.00;;;;;;;-4.12;76.87;100466.24;447640;1269;190718;-68
2022/02/13 03:36:32;;;;;;;23.40;12.30;;;;;;;-4.21;76.82;100454.35;442712;1269;142879;-67
2022/02/13 03:46:38;;;;;;;21.30;12.20;;;;;;;-4.28;76.98;100448.46;444045;1268;141840;-67
2022/02/13 03:56:47;;;;;;;18.60;10.90;;;;;;;-4.30;77.11;100441.44;431293;1270;141929;-66
2022/02/13 04:06:53;;;;;;;17.20;11.40;;;;;;;-4.35;77.13;100435.58;437324;1270;142259;-68
2022/02/13 04:16:59;;;;;;;16.70;10.50;;;;;;;-4.36;77.33;100426.33;447541;1270;142852;-68
2022/02/13 04:27:05;;;;;;;19.40;11.10;;;;;;;-4.36;77.31;100396.59;442877;1269;142692;-67
2022/02/13 04:37:11;;;;;;;17.60;10.90;;;;;;;-4.40;77.37;100392.09;447470;1269;197061;-68
2022/02/13 04:47:17;;;;;;;22.00;13.40;;;;;;;-4.42;77.46;100384.39;447651;1269;144031;-68
2022/02/13 04:57:23;;;;;;;20.80;12.70;;;;;;;-4.42;77.40;100374.64;437015;1269;143385;-67
2022/02/13 05:07:28;;;;;;;22.40;13.30;;;;;;;-4.46;77.61;100365.20;436287;1269;145003;-66
2022/02/13 05:17:37;;;;;;;17.10;12.10;;;;;;;-4.44;77.69;100353.43;431167;1269;142670;-67
2022/02/13 05:27:43;;;;;;;21.70;12.00;;;;;;;-4.50;77.72;100337.65;441625;1269;142335;-66
2022/02/13 05:37:51;;;;;;;21.00;12.80;;;;;;;-4.57;77.73;100327.84;431797;1270;142794;-65
2022/02/13 05:47:57;;;;;;;20.90;13.10;;;;;;;-4.65;77.82;100325.37;431672;1270;143061;-68
2022/02/13 05:58:03;;;;;;;20.90;12.90;;;;;;;-4.71;77.98;100326.16;436406;1269;141933;-66
2022/02/13 06:08:10;;;;;;;22.90;14.10;;;;;;;-4.73;78.02;100321.19;437260;1269;142796;-65
2022/02/13 06:18:16;;;;;;;17.70;11.50;;;;;;;-4.64;78.14;100317.69;430037;1269;142296;-67
2022/02/13 06:28:22;;;;;;;21.80;14.20;;;;;;;-4.48;78.13;100308.96;430622;1270;142213;-64
2022/02/13 06:38:28;;;;;;;25.60;14.70;;;;;;;-4.24;78.27;100299.92;430212;1270;143240;-65
2022/02/13 06:48:35;;;;;;;31.30;17.20;;;;;;;-3.80;78.08;100296.64;430474;1270;142738;-65
2022/02/13 06:58:41;;;;;;;23.80;15.10;;;;;;;-2.98;77.87;100281.91;431074;1270;141789;-65
2022/02/13 07:08:47;;;;;;;24.00;15.70;;;;;;;-0.28;76.79;100263.52;431786;1270;143135;-64
2022/02/13 07:18:53;;;;;;;20.70;14.40;;;;;;;1.91;73.95;100248.52;430879;1270;142514;-66
2022/02/13 07:29:02;;;;;;;21.30;15.60;;;;;;;4.36;71.52;100233.24;432116;1270;143996;-66
2022/02/13 07:39:08;;;;;;;23.70;15.20;;;;;;;6.52;68.18;100231.20;430600;1270;141856;-64
2022/02/13 07:49:14;;;;;;;19.90;14.00;;;;;;;7.01;66.30;100227.61;431761;1270;143521;-66
2022/02/13 07:59:20;;;;;;;21.40;13.20;;;;;;;6.87;64.70;100220.31;432194;1269;141890;-66
2022/02/13 08:09:26;;;;;;;16.20;11.80;;;;;;;6.64;63.60;100216.65;429395;1270;142993;-67
2022/02/13 08:19:35;;;;;;;19.30;13.10;;;;;;;5.21;63.04;100205.02;437238;1270;141826;-66
2022/02/13 08:29:42;;;;;;;16.50;12.40;;;;;;;6.43;63.40;100191.10;431080;1270;142886;-67
2022/02/13 08:39:48;;;;;;;13.70;11.20;;;;;;;9.69;61.31;100182.84;431386;1270;141598;-68
2022/02/13 08:49:54;;;;;;;13.80;12.30;;;;;;;14.01;57.90;100161.66;433946;1270;141903;-65
2022/02/13 09:00:00;;;;;;;11.90;10.50;;;;;;;16.61;53.86;100157.95;430198;1270;142891;-67
2022/02/13 09:10:07;;;;;;;12.80;10.80;;;;;;;18.04;51.22;100153.48;432909;1270;142647;-66
2022/02/13 09:20:13;;;;;;;;;;;;;;;19.15;47.56;100149.28;433307;1270;143750;-68
2022/02/13 09:30:18;;;;;;;12.90;9.70;;;;;;;19.06;45.82;100130.55;431333;1270;128797;-67
2022/02/13 09:40:25;;;;;;;14.20;9.90;;;;;;;18.73;44.72;100116.97;430544;1270;146998;-67
2022/02/13 09:50:31;;;;;;;12.90;9.10;;;;;;;13.91;44.16;100112.30;433011;1270;142812;-67
2022/02/13 10:00:57;;;;;;;12.10;8.90;;;;;;;9.33;47.02;100100.05;432573;1269;142047;-68
2022/02/13 10:11:14;;;;;;;9.90;8.80;;;;;;;6.99;49.52;100093.48;430983;1268;142202;-67
2022/02/13 10:21:40;;;;;;;11.80;8.80;;;;;;;5.65;51.34;100073.84;435487;1270;142191;-66
2022/02/13 10:31:46;;;;;;;9.60;7.20;;;;;;;4.95;52.82;100057.66;437930;1270;142444;-67
2022/02/13 10:41:53;;;;;;;10.90;6.70;;;;;;;4.59;53.68;100040.80;431311;1270;142395;-68
2022/02/13 10:52:00;;;;;;;11.40;6.30;;;;;;;4.31;54.45;100039.23;436889;1269;151662;-67
2022/02/13 11:02:07;;;;;;;9.80;7.30;;;;;;;4.29;54.98;100015.37;430738;1270;142246;-68
2022/02/13 11:12:16;;;;;;;12.30;7.60;;;;;;;4.12;54.97;99997.36;430194;1270;141272;-68
2022/02/13 11:22:31;;;;;;;9.10;6.60;;;;;;;4.10;55.58;99984.61;434645;1270;140309;-67
2022/02/13 11:32:42;;;;;;;11.80;5.80;;;;;;;4.11;56.09;99981.30;433034;1271;141049;-66
2022/02/13 11:42:48;;;;;;;9.70;6.70;;;;;;;4.18;56.30;99972.58;431182;1270;140799;-66
2022/02/13 11:53:03;;;;;;;9.00;6.90;;;;;;;4.27;56.34;99953.06;432391;1270;141285;-66
2022/02/13 12:03:17;;;;;;;7.80;6.00;;;;;;;4.28;56.14;99940.71;431319;1271;140696;-68
2022/02/13 12:13:26;;;;;;;10.40;6.80;;;;;;;4.30;56.20;99930.23;431618;1270;140944;-66
2022/02/13 12:23:32;;;;;;;11.10;7.50;;;;;;;4.32;56.17;99909.39;435382;1271;141034;-67
2022/02/13 12:33:45;;;;;;;11.60;7.10;;;;;;;4.33;55.83;99899.46;430470;1270;141005;-66
2022/02/13 12:43:52;;;;;;;6.40;5.20;;;;;;;4.35;55.70;99876.20;432716;1270;141131;-67
2022/02/13 12:53:59;;;;;;;13.50;7.80;;;;;;;4.42;55.68;99873.70;431973;1271;141016;-66
2022/02/13 13:04:05;;;;;;;11.80;6.10;;;;;;;4.45;55.69;99857.45;431009;1270;143184;-66
2022/02/13 13:14:15;;;;;;;12.90;7.20;;;;;;;4.49;55.43;99849.86;436847;1270;141063;-66
2022/02/13 13:24:25;;;;;;;14.80;7.00;;;;;;;4.53;55.48;99836.91;430163;1270;140915;-67
2022/02/13 13:34:34;;;;;;;11.60;6.70;;;;;;;4.55;55.57;99829.02;431316;1270;140412;-66
2022/02/13 13:44:40;;;;;;;9.30;6.50;;;;;;;4.59;55.61;99812.93;435474;1270;146068;-66
2022/02/13 13:54:46;;;;;;;9.10;6.50;;;;;;;4.65;55.37;99810.83;430473;1270;141037;-62
2022/02/13 14:04:53;;;;;;;7.60;4.60;;;;;;;4.73;55.19;99806.55;435778;1270;140970;-63
2022/02/13 14:14:59;;;;;;;12.20;6.90;;;;;;;4.81;55.41;99801.25;431306;1270;140898;-64
2022/02/13 14:25:06;;;;;;;8.50;6.00;;;;;;;4.81;55.06;99798.30;433309;1270;141947;-65
2022/02/13 14:35:13;;;;;;;7.00;4.30;;;;;;;4.75;54.88;99788.08;436761;1270;233488;-65
2022/02/13 14:45:19;;;;;;;9.60;5.30;;;;;;;4.70;54.61;99785.67;431575;1270;140815;-69
2022/02/13 14:55:25;;;;;;;9.20;6.40;;;;;;;4.59;54.59;99784.33;431582;1270;141507;-64
2022/02/13 15:05:31;;;;;;;10.10;5.50;;;;;;;4.40;54.96;99777.56;432057;1270;141581;-67
2022/02/13 15:15:37;;;;;;;10.40;7.20;;;;;;;4.15;55.34;99762.14;438685;1270;140965;-63
2022/02/13 15:25:43;;;;;;;9.30;6.70;;;;;;;4.12;55.30;99756.00;432170;1269;140505;-63
2022/02/13 15:35:49;;;;;;;12.90;8.70;;;;;;;3.94;55.29;99757.30;436936;1270;140465;-61
2022/02/13 15:45:55;;;;;;;11.90;8.00;;;;;;;3.37;55.74;99757.05;432679;1270;140479;-58
2022/02/13 15:56:01;;;;;;;17.20;8.70;;;;;;;2.82;56.48;99766.34;432141;1270;141663;-59
2022/02/13 16:06:09;;;;;;;15.00;9.10;;;;;;;2.32;57.04;99771.68;431727;1270;140383;-62
2022/02/13 16:16:15;;;;;;;21.00;12.20;;;;;;;1.93;57.65;99768.21;435963;1269;141785;-63
2022/02/13 16:26:21;;;;;;;18.00;10.80;;;;;;;1.58;58.33;99768.20;442860;1271;141059;-63
2022/02/13 16:36:27;;;;;;;22.50;13.30;;;;;;;1.28;58.94;99769.05;440778;1268;141507;-62
2022/02/13 16:46:33;;;;;;;15.20;11.30;;;;;;;1.06;59.51;99759.21;432043;1270;141214;-59
2022/02/13 16:56:41;;;;;;;17.10;11.40;;;;;;;0.83;59.92;99759.20;436103;1269;144759;-70
2022/02/13 17:06:49;;;;;;;16.70;10.50;;;;;;;0.61;60.38;99749.98;432864;1270;142175;-69
2022/02/13 17:16:55;;;;;;;15.90;11.00;;;;;;;0.47;60.92;99749.23;447513;1269;141773;-71
2022/02/13 17:27:02;;;;;;;21.40;12.90;;;;;;;0.36;61.40;99740.67;432637;1269;141774;-72
2022/02/13 17:37:08;;;;;;;25.00;13.90;;;;;;;0.23;61.45;99729.54;437688;1269;140362;-71
2022/02/13 17:47:14;;;;;;;22.60;12.50;;;;;;;0.17;61.57;99708.33;443005;1269;141243;-72
2022/02/13 17:57:20;;;;;;;24.60;12.40;;;;;;;0.08;62.09;99699.17;442520;1269;143265;-71
2022/02/13 18:07:32;;;;;;;20.20;10.60;;;;;;;-0.01;62.39;99690.22;442294;1270;144509;-72
2022/02/13 18:17:38;;;;;;;22.40;12.30;;;;;;;-0.04;62.31;99683.58;442501;1269;140758;-62
2022/02/13 18:27:44;;;;;;;18.70;10.30;;;;;;;-0.14;62.92;99677.21;430905;1270;140971;-61
2022/02/13 18:37:51;;;;;;;20.90;12.10;;;;;;;-0.14;62.69;99668.45;431246;1269;142181;-61
2022/02/13 18:47:56;;;;;;;16.40;11.10;;;;;;;-0.16;63.01;99672.11;440623;1270;141191;-65
2022/02/13 18:58:03;;;;;;;15.90;9.60;;;;;;;-0.17;63.37;99664.70;442504;1269;142190;-64
2022/02/13 19:08:09;;;;;;;14.20;9.10;;;;;;;-0.18;63.40;99670.08;438776;1269;143381;-63
2022/02/13 19:18:15;;;;;;;13.40;8.70;;;;;;;-0.26;63.49;99658.01;434022;1270;142226;-61
2022/02/13 19:28:21;;;;;;;18.60;11.80;;;;;;;-0.31;63.61;99649.66;431126;1270;142252;-54
2022/02/13 19:38:27;;;;;;;15.10;9.00;;;;;;;-0.36;63.79;99647.00;430372;1270;143641;-62
2022/02/13 19:48:33;;;;;;;22.70;12.00;;;;;;;-0.42;63.77;99655.70;429836;1270;142343;-62
2022/02/13 19:58:40;;;;;;;18.60;10.90;;;;;;;-0.51;63.98;99654.66;432553;1270;140849;-61
2022/02/13 20:08:46;;;;;;;16.80;9.60;;;;;;;-0.62;64.36;99657.94;436050;1270;143379;-64
2022/02/13 20:18:52;;;;;;;19.00;10.60;;;;;;;-0.72;64.57;99660.50;431478;1269;140261;-64
2022/02/13 20:29:00;;;;;;;14.80;8.90;;;;;;;-0.78;65.09;99667.65;437858;1269;141161;-67
2022/02/13 20:39:06;;;;;;;15.70;9.90;;;;;;;-0.94;65.09;99655.36;430229;1270;142399;-64
2022/02/13 20:49:11;;;;;;;15.50;9.40;;;;;;;-1.00;65.37;99643.09;430682;1270;142030;-64
2022/02/13 20:59:20;;;;;;;15.40;9.60;;;;;;;-1.12;65.45;99626.43;442428;1269;142937;-62
2022/02/13 21:09:26;;;;;;;17.20;9.80;;;;;;;-1.19;65.65;99610.90;429628;1270;142203;-61
2022/02/13 21:19:32;;;;;;;15.30;10.30;;;;;;;-1.25;65.70;99604.63;431551;1270;141909;-63
2022/02/13 21:29:38;;;;;;;15.00;8.70;;;;;;;-1.33;66.00;99606.64;433735;1268;146022;-63
2022/02/13 21:39:44;;;;;;;21.80;10.20;;;;;;;-1.39;66.10;99605.01;435801;1270;141848;-62
2022/02/13 21:49:50;;;;;;;13.10;8.80;;;;;;;-1.50;65.88;99591.43;433543;1270;141210;-62
2022/02/13 21:59:55;;;;;;;12.80;8.10;;;;;;;-1.56;65.91;99579.67;436157;1269;141795;-61
2022/02/13 22:10:02;;;;;;;18.20;9.40;;;;;;;-1.58;65.90;99575.92;434548;1270;140318;-63
2022/02/13 22:20:27;;;;;;;15.90;7.70;;;;;;;-1.63;65.87;99563.45;439090;1269;142067;-62
2022/02/13 22:30:33;;;;;;;9.90;7.00;;;;;;;-1.72;65.46;99558.42;440921;1269;146553;-64
2022/02/13 22:40:39;;;;;;;16.60;9.20;;;;;;;-1.77;65.32;99555.08;431480;1270;142468;-63
2022/02/13 22:50:45;;;;;;;10.00;6.20;;;;;;;-1.77;65.11;99553.52;430976;1270;141403;-63
2022/02/13 23:00:51;;;;;;;8.60;5.40;;;;;;;-1.75;64.66;99547.66;430120;1269;141402;-66
2022/02/13 23:21:22;;;;;;;9.70;6.30;;;;;;;-1.69;64.32;99570.58;430280;1270;140940;-68
2022/02/13 23:31:26;;;;;;;;;;;;;;;-1.72;64.25;99572.34;430757;1269;141264;-63
2022/02/13 23:41:32;;;;;;;7.30;4.70;;;;;;;-1.86;64.37;99565.31;430767;1270;126848;-67
2022/02/13 23:51:38;;;;;;;9.70;6.10;;;;;;;-1.99;64.89;99545.08;430643;1270;141899;-69
